createdAt,value
2022-11-27T00:01:19.558Z,6.75
2022-11-27T00:03:53.588Z,6.65
2022-11-27T00:06:25.311Z,6.40
2022-11-27T00:08:52.124Z,6.43
2022-11-27T00:11:23.706Z,6.10
2022-11-27T00:13:51.333Z,6.53
2022-11-27T00:16:18.914Z,6.25
2022-11-27T00:18:45.790Z,7.18
2022-11-27T00:21:14.730Z,6.13
2022-11-27T00:23:41.866Z,6.15
2022-11-27T00:26:09.322Z,6.88
2022-11-27T00:28:37.898Z,6.78
2022-11-27T00:31:13.167Z,6.40
2022-11-27T00:33:39.745Z,6.72
2022-11-27T00:36:14.498Z,7.07
2022-11-27T00:38:42.173Z,6.75
2022-11-27T00:41:11.163Z,6.47
2022-11-27T00:43:45.622Z,7.15
2022-11-27T00:46:23.892Z,8.18
2022-11-27T00:48:53.389Z,7.00
2022-11-27T00:51:21.987Z,6.32
2022-11-27T00:53:48.594Z,6.70
2022-11-27T00:56:18.241Z,6.88
2022-11-27T00:58:44.803Z,7.93
2022-11-27T01:01:18.342Z,8.05
2022-11-27T01:03:45.398Z,8.43
2022-11-27T01:06:12.666Z,8.02
2022-11-27T01:08:39.946Z,7.95
2022-11-27T01:11:19.094Z,8.60
2022-11-27T01:13:46.949Z,7.65
2022-11-27T01:16:26.251Z,7.50
2022-11-27T01:18:58.059Z,7.55
2022-11-27T01:21:26.704Z,7.20
2022-11-27T01:24:03.094Z,6.95
2022-11-27T01:26:31.751Z,7.28
2022-11-27T01:29:01.588Z,6.90
2022-11-27T01:31:31.790Z,6.97
2022-11-27T01:34:01.301Z,7.00
2022-11-27T01:36:28.902Z,6.93
2022-11-27T01:38:58.838Z,6.90
2022-11-27T01:41:28.304Z,6.55
2022-11-27T01:44:25.878Z,6.55
2022-11-27T01:47:26.679Z,6.57
2022-11-27T01:49:59.758Z,5.72
2022-11-27T01:52:29.893Z,5.15
2022-11-27T01:55:04.366Z,6.30
2022-11-27T01:57:38.837Z,5.50
2022-11-27T02:00:10.049Z,6.05
2022-11-27T02:02:36.581Z,5.55
2022-11-27T02:05:08.378Z,6.22
2022-11-27T02:07:35.135Z,7.10
2022-11-27T02:10:02.465Z,6.70
2022-11-27T02:12:50.630Z,6.13
2022-11-27T02:15:33.809Z,6.32
2022-11-27T02:18:27.441Z,6.00
2022-11-27T02:21:26.224Z,6.50
2022-11-27T02:24:02.494Z,6.43
2022-11-27T02:27:02.906Z,6.13
2022-11-27T02:29:33.564Z,5.88
2022-11-27T02:32:23.392Z,5.63
2022-11-27T02:35:24.953Z,5.53
2022-11-27T02:37:59.966Z,6.30
2022-11-27T02:40:29.187Z,6.10
2022-11-27T02:42:57.757Z,5.90
2022-11-27T02:45:35.979Z,5.82
2022-11-27T02:48:04.252Z,6.40
2022-11-27T02:50:33.691Z,6.00
2022-11-27T02:53:10.403Z,6.00
2022-11-27T02:55:40.279Z,6.05
2022-11-27T02:58:10.755Z,6.30
2022-11-27T03:00:40.093Z,6.40
2022-11-27T03:03:13.101Z,5.70
2022-11-27T03:05:43.584Z,6.10
2022-11-27T03:08:28.863Z,5.95
2022-11-27T03:11:02.919Z,5.78
2022-11-27T03:13:35.918Z,7.00
2022-11-27T03:16:05.500Z,5.55
2022-11-27T03:18:51.464Z,6.00
2022-11-27T03:21:23.643Z,5.97
2022-11-27T03:23:50.363Z,6.35
2022-11-27T03:26:16.925Z,5.95
2022-11-27T03:28:48.930Z,6.10
2022-11-27T03:33:50.980Z,5.90
2022-11-27T03:36:20.081Z,6.22
2022-11-27T03:38:49.104Z,6.32
2022-11-27T03:41:28.107Z,5.90
2022-11-27T03:44:16.297Z,6.88
2022-11-27T03:47:03.900Z,6.20
2022-11-27T03:49:51.758Z,6.47
2022-11-27T03:52:42.313Z,6.90
2022-11-27T03:55:27.117Z,6.43
2022-11-27T03:57:58.025Z,6.20
2022-11-27T04:00:24.837Z,6.68
2022-11-27T04:02:53.375Z,5.63
2022-11-27T04:05:22.949Z,6.40
2022-11-27T04:07:49.536Z,6.72
2022-11-27T04:10:16.560Z,6.90
2022-11-27T04:12:43.200Z,6.88
2022-11-27T04:15:10.230Z,6.10
2022-11-27T04:17:36.902Z,6.78
2022-11-27T04:20:06.971Z,5.97
2022-11-27T04:22:33.505Z,6.18
2022-11-27T04:25:00.061Z,6.13
2022-11-27T04:27:26.602Z,5.80
2022-11-27T04:29:53.134Z,6.72
2022-11-27T04:32:19.670Z,6.28
2022-11-27T04:34:46.248Z,6.00
2022-11-27T04:37:12.939Z,5.90
2022-11-27T04:39:39.390Z,6.00
2022-11-27T04:42:07.343Z,6.00
2022-11-27T04:44:33.943Z,6.53
2022-11-27T04:47:03.941Z,5.68
2022-11-27T04:49:33.482Z,6.22
2022-11-27T04:51:59.950Z,5.82
2022-11-27T04:54:26.542Z,5.47
2022-11-27T04:56:54.986Z,5.43
2022-11-27T04:59:22.319Z,6.22
2022-11-27T05:01:48.830Z,5.05
2022-11-27T05:04:15.443Z,5.60
2022-11-27T05:06:51.262Z,5.20
2022-11-27T05:09:18.420Z,5.90
2022-11-27T05:11:45.094Z,6.00
2022-11-27T05:14:22.607Z,5.60
2022-11-27T05:16:54.436Z,5.70
2022-11-27T05:19:22.969Z,5.63
2022-11-27T05:21:50.457Z,5.53
2022-11-27T05:24:19.027Z,5.90
2022-11-27T05:26:48.424Z,6.00
2022-11-27T05:29:15.466Z,5.97
2022-11-27T05:31:42.479Z,5.95
2022-11-27T05:34:12.796Z,5.80
2022-11-27T05:36:39.563Z,5.47
2022-11-27T05:39:10.399Z,5.63
2022-11-27T05:41:38.550Z,5.75
2022-11-27T05:44:05.368Z,5.30
2022-11-27T05:46:32.608Z,5.70
2022-11-27T05:48:59.204Z,4.95
2022-11-27T05:51:25.755Z,5.25
2022-11-27T05:53:52.231Z,5.53
2022-11-27T05:56:19.628Z,5.15
2022-11-27T05:58:52.822Z,5.30
2022-11-27T06:01:24.733Z,4.50
2022-11-27T06:06:19.996Z,4.90
2022-11-27T06:08:50.622Z,4.82
2022-11-27T06:11:20.539Z,4.28
2022-11-27T06:13:48.736Z,4.32
2022-11-27T06:16:18.637Z,4.60
2022-11-27T06:18:53.258Z,4.43
2022-11-27T06:21:21.464Z,4.80
2022-11-27T06:23:48.441Z,4.68
2022-11-27T06:26:20.984Z,4.47
2022-11-27T06:28:51.161Z,3.92
2022-11-27T06:31:23.512Z,4.60
2022-11-27T06:33:52.493Z,4.40
2022-11-27T06:36:19.823Z,4.22
2022-11-27T06:38:46.958Z,4.50
2022-11-27T06:41:18.763Z,6.22
2022-11-27T06:43:45.470Z,5.30
2022-11-27T06:46:16.127Z,5.30
2022-11-27T06:48:44.014Z,5.63
2022-11-27T06:51:13.135Z,4.25
2022-11-27T06:53:43.826Z,2.95
2022-11-27T06:56:13.775Z,3.42
2022-11-27T06:58:41.405Z,3.42
2022-11-27T07:01:12.927Z,3.30
2022-11-27T07:03:40.312Z,3.53
2022-11-27T07:06:09.037Z,3.20
2022-11-27T07:08:36.063Z,3.40
2022-11-27T07:11:08.648Z,3.10
2022-11-27T07:13:35.457Z,3.45
2022-11-27T07:16:12.901Z,3.40
2022-11-27T07:18:45.263Z,4.78
2022-11-27T07:21:11.865Z,4.35
2022-11-27T07:23:39.517Z,3.70
2022-11-27T07:26:13.944Z,3.35
2022-11-27T07:28:44.253Z,3.70
2022-11-27T07:31:16.238Z,3.65
2022-11-27T07:33:42.866Z,3.65
2022-11-27T07:36:23.524Z,3.60
2022-11-27T07:38:51.375Z,3.47
2022-11-27T07:41:18.361Z,3.92
2022-11-27T07:43:46.244Z,3.92
2022-11-27T07:46:21.938Z,4.38
2022-11-27T07:48:48.626Z,3.40
2022-11-27T07:51:18.600Z,3.10
2022-11-27T07:53:51.086Z,2.88
2022-11-27T07:56:18.214Z,3.05
2022-11-27T07:58:44.990Z,2.63
2022-11-27T08:01:18.059Z,3.10
2022-11-27T08:03:46.298Z,3.38
2022-11-27T08:06:24.284Z,3.25
2022-11-27T08:08:52.252Z,2.83
2022-11-27T08:11:20.742Z,3.28
2022-11-27T08:13:47.633Z,3.00
2022-11-27T08:16:17.131Z,2.85
2022-11-27T08:18:43.747Z,2.45
2022-11-27T08:21:10.404Z,2.60
2022-11-27T08:23:37.306Z,2.90
2022-11-27T08:26:08.484Z,3.13
2022-11-27T08:28:35.426Z,2.90
2022-11-27T08:31:03.773Z,3.40
2022-11-27T08:33:32.686Z,3.20
2022-11-27T08:35:59.971Z,2.90
2022-11-27T08:38:26.678Z,3.00
2022-11-27T08:40:58.622Z,3.03
2022-11-27T08:45:52.681Z,2.70
2022-11-27T08:48:20.588Z,2.40
2022-11-27T08:50:47.882Z,3.10
2022-11-27T08:53:15.229Z,3.58
2022-11-27T08:55:42.306Z,3.60
2022-11-27T08:58:09.053Z,3.45
2022-11-27T09:00:36.414Z,3.42
2022-11-27T09:03:03.253Z,3.05
2022-11-27T09:05:30.905Z,3.30
2022-11-27T09:07:58.383Z,3.75
2022-11-27T09:10:25.216Z,3.15
2022-11-27T09:12:56.292Z,3.17
2022-11-27T09:15:23.134Z,2.50
2022-11-27T09:17:50.062Z,3.65
2022-11-27T09:20:19.506Z,3.40
2022-11-27T09:22:46.039Z,3.20
2022-11-27T09:25:14.322Z,3.25
2022-11-27T09:27:40.785Z,3.42
2022-11-27T09:30:08.685Z,3.30
2022-11-27T09:32:35.185Z,3.75
2022-11-27T09:35:02.240Z,3.25
2022-11-27T09:37:29.091Z,3.60
2022-11-27T09:39:55.842Z,3.47
2022-11-27T09:42:40.007Z,3.38
2022-11-27T09:45:13.161Z,3.13
2022-11-27T09:47:41.825Z,4.18
2022-11-27T09:50:20.987Z,3.20
2022-11-27T09:52:52.817Z,3.45
2022-11-27T09:55:37.953Z,3.25
2022-11-27T09:58:16.302Z,3.33
2022-11-27T10:00:56.232Z,3.65
2022-11-27T10:03:27.657Z,3.25
2022-11-27T10:06:12.383Z,3.10
2022-11-27T10:09:15.195Z,3.25
2022-11-27T10:11:52.810Z,2.88
2022-11-27T10:14:25.256Z,2.97
2022-11-27T10:17:07.521Z,3.00
2022-11-27T10:19:58.967Z,3.72
2022-11-27T10:22:28.396Z,3.00
2022-11-27T10:25:20.853Z,2.92
2022-11-27T10:28:13.611Z,2.85
2022-11-27T10:30:58.458Z,2.80
2022-11-27T10:33:30.509Z,2.20
2022-11-27T10:38:26.914Z,2.55
2022-11-27T10:41:09.819Z,2.33
2022-11-27T10:43:38.746Z,2.20
2022-11-27T10:46:20.199Z,2.22
2022-11-27T10:48:46.823Z,2.22
2022-11-27T10:51:27.007Z,1.73
2022-11-27T10:53:55.455Z,1.98
2022-11-27T10:56:21.885Z,2.20
2022-11-27T10:58:59.327Z,1.70
2022-11-27T11:01:29.293Z,1.92
2022-11-27T11:04:31.140Z,2.30
2022-11-27T11:06:54.099Z,1.73
2022-11-27T11:09:29.173Z,1.92
2022-11-27T11:12:15.173Z,1.67
2022-11-27T11:14:50.823Z,1.90
2022-11-27T11:17:18.454Z,2.42
2022-11-27T11:19:48.086Z,2.03
2022-11-27T11:22:16.420Z,1.80
2022-11-27T11:24:48.294Z,1.63
2022-11-27T11:27:27.608Z,1.73
2022-11-27T11:29:59.901Z,2.08
2022-11-27T11:32:38.938Z,2.10
2022-11-27T11:35:23.059Z,2.15
2022-11-27T11:37:53.459Z,1.58
2022-11-27T11:40:21.886Z,1.70
2022-11-27T11:43:00.299Z,2.00
2022-11-27T11:45:32.628Z,1.60
2022-11-27T11:48:20.613Z,1.88
2022-11-27T11:50:53.966Z,1.60
2022-11-27T11:53:40.971Z,1.75
2022-11-27T11:56:33.644Z,1.63
2022-11-27T11:59:27.498Z,2.38
2022-11-27T12:02:25.061Z,1.98
2022-11-27T12:04:51.628Z,1.88
2022-11-27T12:07:54.339Z,1.88
2022-11-27T12:10:34.660Z,1.92
2022-11-27T12:13:37.510Z,2.40
2022-11-27T12:16:16.934Z,2.40
2022-11-27T12:19:01.509Z,2.75
2022-11-27T12:21:57.261Z,2.67
2022-11-27T12:24:48.733Z,2.90
2022-11-27T12:27:24.258Z,2.07
2022-11-27T12:30:20.558Z,1.92
2022-11-27T12:32:57.135Z,2.10
2022-11-27T12:35:43.199Z,2.40
2022-11-27T12:38:18.500Z,2.08
2022-11-27T12:40:48.042Z,1.95
2022-11-27T12:43:27.661Z,1.52
2022-11-27T12:45:54.415Z,1.88
2022-11-27T12:48:56.035Z,1.70
2022-11-27T12:51:33.826Z,2.03
2022-11-27T12:54:12.617Z,1.70
2022-11-27T12:56:44.701Z,1.67
2022-11-27T12:59:19.919Z,1.75
2022-11-27T13:01:54.255Z,1.80
2022-11-27T13:04:34.628Z,2.10
2022-11-27T13:07:12.419Z,1.73
2022-11-27T13:10:07.142Z,2.20
2022-11-27T13:12:40.148Z,1.92
2022-11-27T13:15:16.740Z,1.90
2022-11-27T13:17:45.526Z,3.67
2022-11-27T13:20:19.635Z,1.90
2022-11-27T13:22:48.302Z,1.73
2022-11-27T13:25:16.799Z,2.33
2022-11-27T13:27:46.752Z,2.50
2022-11-27T13:30:23.104Z,1.75
2022-11-27T13:32:57.211Z,1.98
2022-11-27T13:35:29.149Z,2.13
2022-11-27T13:40:29.541Z,2.17
2022-11-27T13:42:59.691Z,1.90
2022-11-27T13:45:30.245Z,2.22
2022-11-27T13:47:58.842Z,2.45
2022-11-27T13:50:31.141Z,3.53
2022-11-27T13:53:06.307Z,1.92
2022-11-27T13:55:52.266Z,2.10
2022-11-27T13:58:35.993Z,2.30
2022-11-27T14:01:23.295Z,1.80
2022-11-27T14:03:50.438Z,2.92
2022-11-27T14:06:25.020Z,2.90
2022-11-27T14:09:01.141Z,2.05
2022-11-27T14:11:31.284Z,1.80
2022-11-27T14:13:59.042Z,2.10
2022-11-27T14:16:32.954Z,2.97
2022-11-27T14:19:06.704Z,2.08
2022-11-27T14:21:40.786Z,2.10
2022-11-27T14:24:27.866Z,2.15
2022-11-27T14:26:55.205Z,2.13
2022-11-27T14:29:23.881Z,1.77
2022-11-27T14:31:59.064Z,2.00
2022-11-27T14:34:33.349Z,2.00
2022-11-27T14:37:00.929Z,1.90
2022-11-27T14:39:33.632Z,1.98
2022-11-27T14:42:05.412Z,1.70
2022-11-27T14:44:32.278Z,2.00
2022-11-27T14:47:07.261Z,1.95
2022-11-27T14:49:34.085Z,1.77
2022-11-27T14:52:05.712Z,1.77
2022-11-27T14:54:35.452Z,1.98
2022-11-27T14:57:02.547Z,2.28
2022-11-27T14:59:29.341Z,1.85
2022-11-27T15:02:03.619Z,2.20
2022-11-27T15:04:35.806Z,1.98
2022-11-27T15:07:06.514Z,2.00
2022-11-27T15:09:35.724Z,1.85
2022-11-27T15:12:17.510Z,1.70
2022-11-27T15:14:57.291Z,2.05
2022-11-27T15:17:36.631Z,1.70
2022-11-27T15:20:15.481Z,1.85
2022-11-27T15:22:54.218Z,2.08
2022-11-27T15:25:38.117Z,2.13
2022-11-27T15:28:39.587Z,3.00
2022-11-27T15:31:32.906Z,2.45
2022-11-27T15:34:14.663Z,1.90
2022-11-27T15:36:44.071Z,2.20
2022-11-27T15:39:16.308Z,1.90
2022-11-27T15:41:51.865Z,2.20
2022-11-27T15:44:18.435Z,2.10
2022-11-27T15:46:45.384Z,2.10
2022-11-27T15:49:14.397Z,2.50
2022-11-27T15:51:42.072Z,2.40
2022-11-27T15:54:08.969Z,1.67
2022-11-27T15:56:39.852Z,2.33
2022-11-27T15:59:06.776Z,2.10
2022-11-27T16:01:33.284Z,2.13
2022-11-27T16:03:59.895Z,2.25
2022-11-27T16:06:26.407Z,1.95
2022-11-27T16:08:57.007Z,1.42
2022-11-27T16:11:29.067Z,1.55
2022-11-27T16:16:25.358Z,1.83
2022-11-27T16:18:57.893Z,1.63
2022-11-27T16:21:29.274Z,1.70
2022-11-27T16:23:57.632Z,1.77
2022-11-27T16:26:24.180Z,1.83
2022-11-27T16:28:50.623Z,1.73
2022-11-27T16:31:23.355Z,1.65
2022-11-27T16:33:52.987Z,1.85
2022-11-27T16:36:20.601Z,2.40
2022-11-27T16:38:49.341Z,2.20
2022-11-27T16:41:18.299Z,4.30
2022-11-27T16:43:46.369Z,1.83
2022-11-27T16:46:20.718Z,1.77
2022-11-27T16:48:48.879Z,2.17
2022-11-27T16:51:21.724Z,2.13
2022-11-27T16:53:51.249Z,2.30
2022-11-27T16:56:23.945Z,3.65
2022-11-27T16:58:53.004Z,3.35
2022-11-27T17:01:24.648Z,3.33
2022-11-27T17:03:55.005Z,2.92
2022-11-27T17:06:26.094Z,2.70
2022-11-27T17:08:56.650Z,2.60
2022-11-27T17:11:26.214Z,2.10
2022-11-27T17:13:55.930Z,2.55
2022-11-27T17:16:23.029Z,2.10
2022-11-27T17:18:49.526Z,2.00
2022-11-27T17:21:18.896Z,1.80
2022-11-27T17:23:46.936Z,1.55
2022-11-27T17:26:22.958Z,1.48
2022-11-27T17:28:49.616Z,1.40
2022-11-27T17:31:19.162Z,1.67
2022-11-27T17:33:46.737Z,1.63
2022-11-27T17:36:13.754Z,1.88
2022-11-27T17:38:40.681Z,1.75
2022-11-27T17:41:13.176Z,1.95
2022-11-27T17:43:40.917Z,2.42
2022-11-27T17:46:13.896Z,2.60
2022-11-27T17:48:40.507Z,2.85
2022-11-27T17:51:07.198Z,4.20
2022-11-27T17:53:34.520Z,4.60
2022-11-27T17:56:11.718Z,6.40
2022-11-27T17:58:41.286Z,6.15
2022-11-27T18:01:15.057Z,2.80
2022-11-27T18:03:42.643Z,3.30
2022-11-27T18:06:09.608Z,4.25
2022-11-27T18:08:39.815Z,2.50
2022-11-27T18:11:17.976Z,2.55
2022-11-27T18:13:44.998Z,3.17
2022-11-27T18:16:20.968Z,1.95
2022-11-27T18:18:48.815Z,2.38
2022-11-27T18:21:18.757Z,2.55
2022-11-27T18:24:20.572Z,2.30
2022-11-27T18:30:12.875Z,3.30
2022-11-27T18:32:39.890Z,8.02
2022-11-27T18:35:07.311Z,2.10
2022-11-27T18:37:38.460Z,4.53
2022-11-27T18:40:09.261Z,5.33
2022-11-27T18:42:38.640Z,2.30
2022-11-27T18:45:05.762Z,2.20
2022-11-27T18:47:33.512Z,2.70
2022-11-27T18:50:03.085Z,1.75
2022-11-27T18:52:29.637Z,1.70
2022-11-27T18:54:56.311Z,2.33
2022-11-27T18:57:22.811Z,1.80
2022-11-27T18:59:49.436Z,1.58
2022-11-27T19:02:15.925Z,1.67
2022-11-27T19:04:46.427Z,1.60
2022-11-27T19:07:13.053Z,1.88
2022-11-27T19:09:40.060Z,1.63
2022-11-27T19:12:06.883Z,1.63
2022-11-27T19:14:33.526Z,1.40
2022-11-27T19:17:00.215Z,1.55
2022-11-27T19:22:16.938Z,1.40
2022-11-27T19:24:43.472Z,1.70
2022-11-27T19:27:10.006Z,1.80
2022-11-27T19:29:36.504Z,2.10
2022-11-27T19:32:05.783Z,2.05
2022-11-27T19:34:32.353Z,1.77
2022-11-27T19:36:58.937Z,1.55
2022-11-27T19:39:26.918Z,2.60
2022-11-27T19:41:53.392Z,1.90
2022-11-27T19:44:22.733Z,2.10
2022-11-27T19:46:52.272Z,2.22
2022-11-27T19:49:19.211Z,1.80
2022-11-27T19:51:46.134Z,2.03
2022-11-27T19:54:14.062Z,1.85
2022-11-27T19:56:42.410Z,1.90
2022-11-27T19:59:10.294Z,1.80
2022-11-27T20:01:38.092Z,2.03
2022-11-27T20:04:05.558Z,1.90
2022-11-27T20:06:32.173Z,2.00
2022-11-27T20:09:01.569Z,2.40
2022-11-27T20:11:34.158Z,2.95
2022-11-27T20:14:04.773Z,2.05
2022-11-27T20:16:32.618Z,2.05
2022-11-27T20:18:59.411Z,1.42
2022-11-27T20:21:26.171Z,1.52
2022-11-27T20:23:53.510Z,1.40
2022-11-27T20:26:30.720Z,1.63
2022-11-27T20:28:58.137Z,1.60
2022-11-27T20:31:28.598Z,1.75
2022-11-27T20:33:58.262Z,1.65
2022-11-27T20:36:25.375Z,1.60
2022-11-27T20:38:52.884Z,1.60
2022-11-27T20:41:20.669Z,1.60
2022-11-27T20:43:47.740Z,1.58
2022-11-27T20:46:16.027Z,1.48
2022-11-27T20:48:45.911Z,1.40
2022-11-27T20:51:15.321Z,1.70
2022-11-27T20:53:44.075Z,1.58
2022-11-27T20:56:11.908Z,1.40
2022-11-27T20:58:40.529Z,1.40
2022-11-27T21:01:23.990Z,1.85
2022-11-27T21:03:52.373Z,1.30
2022-11-27T21:06:21.223Z,1.60
2022-11-27T21:08:48.087Z,1.80
2022-11-27T21:11:25.087Z,1.60
2022-11-27T21:14:01.377Z,1.58
2022-11-27T21:16:30.997Z,1.58
2022-11-27T21:18:59.715Z,1.80
2022-11-27T21:21:26.738Z,2.25
2022-11-27T21:23:54.289Z,2.17
2022-11-27T21:26:24.354Z,2.83
2022-11-27T21:28:51.561Z,2.63
2022-11-27T21:31:20.804Z,2.55
2022-11-27T21:34:22.361Z,2.72
2022-11-27T21:36:52.393Z,2.60
2022-11-27T21:39:22.558Z,2.30
2022-11-27T21:41:51.859Z,2.10
2022-11-27T21:44:19.207Z,2.10
2022-11-27T21:46:46.593Z,2.40
2022-11-27T21:49:18.365Z,2.00
2022-11-27T21:51:45.198Z,1.95
2022-11-27T21:54:14.992Z,2.28
2022-11-27T21:56:44.687Z,4.00
2022-11-27T21:59:13.430Z,5.30
2022-11-27T22:01:42.153Z,4.60
2022-11-27T22:04:08.723Z,4.68
2022-11-27T22:06:38.378Z,5.30
2022-11-27T22:09:11.858Z,5.55
2022-11-27T22:11:41.355Z,5.57
2022-11-27T22:14:11.068Z,5.50
2022-11-27T22:16:44.332Z,5.68
2022-11-27T22:19:11.831Z,5.20
2022-11-27T22:21:38.412Z,5.45
2022-11-27T22:24:07.157Z,4.75
2022-11-27T22:26:33.695Z,5.22
2022-11-27T22:29:00.242Z,6.93
2022-11-27T22:31:29.918Z,8.02
2022-11-27T22:33:57.828Z,7.75
2022-11-27T22:36:32.069Z,7.30
2022-11-27T22:39:00.716Z,7.47
2022-11-27T22:41:29.015Z,7.72
2022-11-27T22:43:56.049Z,6.82
2022-11-27T22:46:35.455Z,7.75
2022-11-27T22:49:05.149Z,7.28
2022-11-27T22:51:34.311Z,7.57
2022-11-27T22:54:05.685Z,7.47
2022-11-27T22:56:36.209Z,7.65
2022-11-27T22:59:31.724Z,7.65
2022-11-27T23:01:59.152Z,7.68
2022-11-27T23:04:28.603Z,7.85
2022-11-27T23:06:55.160Z,7.53
2022-11-27T23:09:21.653Z,7.15
2022-11-27T23:11:48.622Z,7.38
2022-11-27T23:14:15.452Z,7.75
2022-11-27T23:16:45.320Z,7.50
2022-11-27T23:19:12.319Z,7.32
2022-11-27T23:21:39.209Z,7.07
2022-11-27T23:24:10.853Z,7.35
2022-11-27T23:26:37.471Z,7.75
2022-11-27T23:29:04.350Z,7.40
2022-11-27T23:31:35.086Z,7.47
2022-11-27T23:34:05.220Z,7.25
2022-11-27T23:36:32.789Z,7.13
2022-11-27T23:39:04.480Z,7.20
2022-11-27T23:41:34.423Z,7.10
2022-11-27T23:44:02.018Z,7.82
2022-11-27T23:46:30.233Z,7.25
2022-11-27T23:48:59.644Z,7.00
2022-11-27T23:51:31.763Z,7.03
2022-11-27T23:53:59.206Z,7.20
2022-11-27T23:56:31.444Z,6.70
2022-11-27T23:58:58.989Z,7.15
